createdAt,value
2023-03-23T16:02:23.522Z,24.09
2023-03-23T16:07:25.065Z,23.78
2023-03-23T16:12:23.951Z,23.13
2023-03-23T16:17:24.274Z,22.74
2023-03-23T16:22:23.100Z,22.26
2023-03-23T16:27:23.741Z,21.68
2023-03-23T16:32:24.428Z,21.21
2023-03-23T16:37:25.952Z,20.86
2023-03-23T16:42:24.855Z,20.54
2023-03-23T16:47:25.676Z,20.26
2023-03-23T16:52:24.545Z,19.92
2023-03-23T16:57:23.494Z,19.65
2023-03-23T17:02:22.205Z,19.41
2023-03-23T17:07:22.377Z,19.10
2023-03-23T17:12:22.280Z,18.83
2023-03-23T17:17:22.406Z,18.55
2023-03-23T17:22:22.754Z,18.41
2023-03-23T17:27:23.051Z,18.27
2023-03-23T17:32:29.690Z,18.13
2023-03-23T17:37:29.901Z,18.00
2023-03-23T17:42:29.097Z,17.86
2023-03-23T17:47:28.126Z,17.70
2023-03-23T17:52:27.542Z,17.56
2023-03-23T17:57:30.691Z,17.41
2023-03-23T18:02:29.550Z,17.26
2023-03-23T18:07:29.180Z,17.15
2023-03-23T18:12:30.422Z,17.03
2023-03-23T18:17:29.286Z,16.92
2023-03-23T18:22:28.075Z,16.79
2023-03-23T18:27:27.254Z,16.38
2023-03-23T18:32:29.658Z,16.26
2023-03-23T18:37:28.610Z,16.21
2023-03-23T18:42:28.052Z,16.15
2023-03-23T18:47:35.629Z,16.05
2023-03-23T18:52:34.512Z,15.98
2023-03-23T18:57:33.259Z,15.90
2023-03-23T19:02:33.640Z,15.81
2023-03-23T19:07:32.794Z,15.75
2023-03-23T19:12:32.155Z,15.67
2023-03-23T19:17:30.975Z,15.59
2023-03-23T19:22:31.417Z,15.47
2023-03-23T19:27:31.367Z,15.30
2023-03-23T19:32:30.513Z,15.23
2023-03-23T19:37:34.511Z,15.09
2023-03-23T19:42:35.547Z,15.08
2023-03-23T19:47:34.736Z,14.97
2023-03-23T19:52:33.502Z,14.71
2023-03-23T19:57:32.666Z,14.55
2023-03-23T20:02:35.399Z,14.51
2023-03-23T20:07:35.073Z,14.57
2023-03-23T20:12:33.988Z,14.61
2023-03-23T20:17:34.424Z,14.61
2023-03-23T20:22:33.269Z,14.58
2023-03-23T20:27:32.415Z,14.53
2023-03-23T20:32:40.825Z,14.51
2023-03-23T20:37:41.195Z,14.48
2023-03-23T20:42:44.000Z,14.42
2023-03-23T20:47:44.082Z,14.40
2023-03-23T20:52:42.772Z,14.25
2023-03-23T20:57:42.267Z,14.18
2023-03-23T21:02:42.333Z,14.10
2023-03-23T21:07:42.953Z,14.03
2023-03-23T21:12:41.682Z,14.00
2023-03-23T21:17:40.692Z,13.99
2023-03-23T21:22:39.653Z,13.97
2023-03-23T21:27:39.876Z,13.96
2023-03-23T21:32:38.641Z,13.92
2023-03-23T21:37:37.889Z,13.86
2023-03-23T21:42:36.571Z,13.77
2023-03-23T21:47:37.872Z,13.71
2023-03-23T21:52:37.228Z,13.66
2023-03-23T21:57:37.072Z,13.62
2023-03-23T22:02:46.759Z,13.57
2023-03-23T22:07:46.666Z,13.43
2023-03-23T22:12:45.786Z,13.44
2023-03-23T22:17:46.324Z,13.44
2023-03-23T22:22:45.278Z,13.40
2023-03-23T22:27:44.990Z,13.44
2023-03-23T22:32:45.378Z,13.47
2023-03-23T22:37:44.344Z,13.47
2023-03-23T22:42:43.284Z,13.37
2023-03-23T22:47:42.198Z,13.37
2023-03-23T22:52:42.552Z,13.34
2023-03-23T22:57:41.529Z,13.27
2023-03-23T23:02:40.594Z,13.21
2023-03-23T23:07:40.254Z,13.06
2023-03-23T23:12:42.544Z,12.95
2023-03-23T23:17:41.643Z,12.87
2023-03-23T23:22:43.677Z,12.85
2023-03-23T23:27:44.737Z,12.86
2023-03-23T23:32:44.824Z,12.90
2023-03-23T23:37:43.744Z,12.85
2023-03-23T23:42:46.425Z,12.86
2023-03-23T23:47:45.832Z,12.84
2023-03-23T23:52:45.291Z,12.80
2023-03-23T23:57:46.542Z,12.75
